Time;durP1;ratioP1;P1;durP2;ratioP2;P2;SDS_P1;SDS_P2;PMS_P1;PMS_P2;Temp;Humidity;BMP_temperature;BMP_pressure;BME280_temperature;BME280_humidity;BME280_pressure;Samples;Min_cycle;Max_cycle;Signal;HPM_P1;HPM_P2
2023/03/28 00:02:58;;;;;;;3.17;1.37;;;5.20;59.90;;;;;;6324641;28;21095;-64
2023/03/28 00:06:01;;;;;;;1.20;1.20;;;5.10;60.00;;;;;;6315078;28;20957;-66
2023/03/28 00:09:05;;;;;;;1.20;1.10;;;5.10;60.70;;;;;;6323980;28;20472;-62
2023/03/28 00:12:10;;;;;;;1.10;1.03;;;5.20;61.00;;;;;;6324433;28;20460;-65
2023/03/28 00:15:14;;;;;;;3.80;2.87;;;5.10;61.00;;;;;;6324521;28;20476;-65
2023/03/28 00:18:17;;;;;;;1.47;1.37;;;5.10;61.20;;;;;;6321247;28;20488;-65
2023/03/28 00:21:23;;;;;;;1.00;1.00;;;5.10;61.90;;;;;;6318523;28;20468;-65
2023/03/28 00:24:26;;;;;;;1.10;1.10;;;5.10;61.90;;;;;;6324224;28;20553;-66
2023/03/28 00:27:32;;;;;;;1.10;1.00;;;5.10;62.30;;;;;;6324240;28;20985;-64
2023/03/28 00:30:35;;;;;;;2.13;1.60;;;5.10;61.60;;;;;;6324305;28;20817;-65
2023/03/28 00:33:38;;;;;;;1.87;1.77;;;5.10;61.10;;;;;;6324604;28;20975;-65
2023/03/28 00:36:41;;;;;;;0.90;0.90;;;5.10;61.10;;;;;;6326593;28;20980;-65
2023/03/28 00:39:48;;;;;;;0.93;0.93;;;5.20;61.80;;;;;;6324680;28;20483;-65
2023/03/28 00:42:53;;;;;;;1.60;1.30;;;5.20;61.10;;;;;;6323690;28;20976;-66
2023/03/28 00:45:57;;;;;;;0.90;0.90;;;5.20;61.10;;;;;;6323014;28;20773;-64
2023/03/28 00:49:14;;;;;;;1.23;1.13;;;5.20;61.40;;;;;;6311699;28;20468;-65
2023/03/28 00:52:20;;;;;;;1.10;1.00;;;5.20;63.70;;;;;;6309347;28;20473;-65
2023/03/28 00:55:28;;;;;;;1.80;0.97;;;5.40;66.10;;;;;;6312627;28;20477;-65
2023/03/28 00:58:37;;;;;;;1.50;1.07;;;5.50;66.00;;;;;;6316651;28;20464;-65
2023/03/28 01:01:41;;;;;;;0.90;0.90;;;5.50;63.80;;;;;;6318285;28;20471;-63
2023/03/28 01:04:51;;;;;;;1.80;1.20;;;5.60;63.70;;;;;;6312734;28;20918;-63
2023/03/28 01:07:59;;;;;;;1.33;1.23;;;5.60;63.20;;;;;;6310516;28;20473;-63
2023/03/28 01:11:02;;;;;;;1.77;1.10;;;5.60;64.20;;;;;;6316910;28;20945;-64
2023/03/28 01:14:12;;;;;;;0.97;0.97;;;5.70;64.90;;;;;;6316663;28;20552;-64
2023/03/28 01:17:15;;;;;;;1.10;1.00;;;5.70;67.10;;;;;;6314812;28;20480;-64
2023/03/28 01:20:34;;;;;;;1.93;1.10;;;5.80;68.70;;;;;;6314931;28;20473;-63
2023/03/28 01:24:26;;;;;;;1.13;1.03;;;5.70;70.90;;;;;;6311129;28;20478;-63
2023/03/28 01:27:35;;;;;;;1.50;1.40;;;5.70;73.00;;;;;;6315118;28;20488;-63
2023/03/28 01:31:03;;;;;;;1.13;1.13;;;5.50;76.50;;;;;;6313886;28;20476;-63
2023/03/28 01:34:43;;;;;;;2.07;1.30;;;5.40;80.60;;;;;;6316597;28;21161;-63
2023/03/28 01:37:54;;;;;;;1.57;1.13;;;5.30;84.70;;;;;;6314909;28;20449;-64
2023/03/28 01:41:05;;;;;;;1.60;1.50;;;5.10;87.80;;;;;;6310423;28;20464;-64
2023/03/28 01:44:13;;;;;;;1.30;1.20;;;5.00;91.30;;;;;;6312723;28;20469;-63
2023/03/28 01:47:21;;;;;;;2.50;1.60;;;4.90;93.10;;;;;;6313714;28;20483;-63
2023/03/28 01:50:30;;;;;;;1.80;1.70;;;4.90;94.70;;;;;;6315511;28;21173;-63
2023/03/28 01:53:42;;;;;;;1.60;1.50;;;4.90;96.10;;;;;;6314324;28;20480;-64
2023/03/28 01:56:51;;;;;;;1.10;1.00;;;4.90;97.30;;;;;;6312424;28;20476;-63
2023/03/28 02:00:04;;;;;;;1.30;1.20;;;4.90;98.30;;;;;;6313246;28;20921;-63
2023/03/28 02:03:12;;;;;;;3.87;1.57;;;5.00;99.00;;;;;;6312173;28;20484;-63
2023/03/28 02:06:19;;;;;;;1.33;1.20;;;4.90;99.60;;;;;;6301210;28;20552;-63
2023/03/28 02:09:26;;;;;;;2.03;1.33;;;4.90;99.90;;;;;;6302064;28;20487;-63
2023/03/28 02:12:34;;;;;;;2.33;1.00;;;5.00;99.90;;;;;;6302426;28;20479;-63
2023/03/28 02:15:40;;;;;;;1.13;1.13;;;5.00;99.90;;;;;;6302043;28;20484;-64
2023/03/28 02:18:49;;;;;;;3.17;1.17;;;5.10;99.90;;;;;;6302035;28;20828;-63
2023/03/28 02:22:03;;;;;;;1.90;1.47;;;5.00;99.90;;;;;;6301734;28;20469;-64
2023/03/28 02:25:09;;;;;;;1.17;1.07;;;5.00;99.90;;;;;;6301810;28;20500;-64
2023/03/28 02:28:13;;;;;;;1.10;1.10;;;5.00;99.90;;;;;;6301678;28;20500;-63
2023/03/28 02:31:16;;;;;;;1.30;1.13;;;5.00;99.90;;;;;;6301941;28;21030;-64
2023/03/28 02:34:20;;;;;;;1.20;1.10;;;5.00;99.90;;;;;;6300812;28;20564;-64
2023/03/28 02:37:37;;;;;;;3.43;1.50;;;4.90;99.90;;;;;;6301539;28;20481;-63
2023/03/28 02:40:52;;;;;;;1.50;1.40;;;4.90;99.90;;;;;;6299731;28;20888;-64
2023/03/28 02:44:09;;;;;;;1.10;1.10;;;4.90;99.90;;;;;;6301466;28;20473;-64
2023/03/28 02:47:18;;;;;;;1.40;1.30;;;4.80;99.90;;;;;;6301002;28;21110;-63
2023/03/28 02:50:26;;;;;;;1.70;1.20;;;4.70;99.90;;;;;;6301602;28;20474;-63
2023/03/28 02:53:37;;;;;;;1.10;1.00;;;4.60;99.90;;;;;;6301226;28;20481;-64
2023/03/28 02:56:51;;;;;;;1.10;1.10;;;4.50;99.90;;;;;;6300358;28;20492;-64
2023/03/28 02:59:57;;;;;;;0.90;0.90;;;4.40;99.90;;;;;;6301354;28;20489;-64
2023/03/28 03:03:02;;;;;;;0.90;0.90;;;4.40;99.90;;;;;;6301371;28;20547;-63
2023/03/28 03:06:07;;;;;;;1.30;1.20;;;4.30;99.90;;;;;;6301253;28;20472;-63
2023/03/28 03:09:10;;;;;;;1.10;1.10;;;4.30;99.90;;;;;;6300647;28;20837;-63
2023/03/28 03:12:14;;;;;;;2.30;1.07;;;4.30;99.90;;;;;;6300688;28;20480;-64
2023/03/28 03:15:18;;;;;;;1.20;1.00;;;4.20;99.90;;;;;;6300658;28;20481;-63
2023/03/28 03:18:21;;;;;;;1.10;0.90;;;4.20;99.90;;;;;;6290282;28;20477;-64
2023/03/28 03:21:24;;;;;;;1.00;1.00;;;4.10;99.90;;;;;;6300436;28;20815;-64
2023/03/28 03:24:27;;;;;;;0.80;0.80;;;4.00;99.90;;;;;;6300284;28;20989;-64
2023/03/28 03:27:33;;;;;;;1.00;1.00;;;4.00;99.90;;;;;;6300661;28;20480;-63
2023/03/28 03:30:36;;;;;;;1.00;1.00;;;3.90;99.90;;;;;;6302124;28;20465;-64
2023/03/28 03:33:40;;;;;;;1.00;1.00;;;3.90;99.90;;;;;;6303503;28;20665;-63
2023/03/28 03:36:43;;;;;;;0.90;0.90;;;3.90;99.90;;;;;;6306907;28;20778;-63
2023/03/28 03:39:47;;;;;;;0.90;0.90;;;3.90;99.90;;;;;;6301621;28;20481;-63
2023/03/28 03:42:51;;;;;;;0.90;0.90;;;3.90;99.90;;;;;;6300335;28;20576;-63
2023/03/28 03:45:56;;;;;;;1.20;1.10;;;3.90;99.90;;;;;;6300538;28;20477;-65
2023/03/28 03:48:59;;;;;;;1.33;1.17;;;4.00;99.90;;;;;;6299792;28;20976;-63
2023/03/28 03:52:03;;;;;;;0.83;0.83;;;4.10;99.90;;;;;;6300260;28;20469;-64
2023/03/28 03:55:06;;;;;;;1.10;1.00;;;4.10;99.90;;;;;;6299556;28;20986;-64
2023/03/28 03:58:11;;;;;;;1.00;1.00;;;4.20;99.90;;;;;;6300028;28;20473;-63
2023/03/28 04:01:14;;;;;;;0.90;0.90;;;4.20;99.90;;;;;;6299623;28;20468;-64
2023/03/28 04:04:17;;;;;;;0.90;0.90;;;4.20;99.90;;;;;;6299548;28;20473;-64
2023/03/28 04:07:20;;;;;;;1.10;1.00;;;4.30;99.90;;;;;;6299605;28;20552;-64
2023/03/28 04:10:24;;;;;;;1.10;1.00;;;4.30;99.90;;;;;;6299206;28;20846;-64
2023/03/28 04:13:28;;;;;;;1.00;1.00;;;4.30;99.90;;;;;;6299646;28;20518;-64
2023/03/28 04:16:33;;;;;;;1.10;1.00;;;4.30;99.90;;;;;;6298955;28;20829;-64
2023/03/28 04:19:44;;;;;;;1.40;1.30;;;4.30;99.90;;;;;;6295129;28;20531;-63
2023/03/28 04:22:48;;;;;;;1.20;1.20;;;4.20;99.90;;;;;;6299538;28;20445;-63
2023/03/28 04:25:54;;;;;;;1.00;1.00;;;4.10;99.90;;;;;;6299174;28;20484;-64
2023/03/28 04:28:59;;;;;;;0.90;0.90;;;4.00;99.90;;;;;;6301334;28;20473;-64
2023/03/28 04:32:04;;;;;;;1.20;1.20;;;4.00;99.90;;;;;;6304920;28;20934;-63
2023/03/28 04:35:10;;;;;;;1.67;1.07;;;3.90;99.90;;;;;;6304806;28;20473;-64
2023/03/28 04:38:16;;;;;;;0.97;0.97;;;3.90;99.90;;;;;;6305084;28;20461;-63
2023/03/28 04:41:24;;;;;;;1.03;1.00;;;3.90;99.90;;;;;;6303882;28;20476;-63
2023/03/28 04:44:29;;;;;;;1.63;1.20;;;3.90;99.90;;;;;;6304393;28;20984;-63
2023/03/28 04:47:33;;;;;;;1.40;1.30;;;3.80;99.90;;;;;;6304179;28;20485;-64
2023/03/28 04:50:36;;;;;;;1.00;1.00;;;3.80;99.90;;;;;;6303940;28;20476;-64
2023/03/28 04:53:39;;;;;;;1.43;1.33;;;3.70;99.90;;;;;;6303772;28;20857;-64
2023/03/28 04:56:44;;;;;;;1.30;1.20;;;3.70;99.90;;;;;;6303158;28;20579;-64
2023/03/28 04:59:49;;;;;;;1.40;1.20;;;3.70;99.90;;;;;;6303942;28;20491;-64
2023/03/28 05:02:54;;;;;;;1.40;1.30;;;3.70;99.90;;;;;;6303968;28;20469;-64
2023/03/28 05:05:58;;;;;;;2.20;1.40;;;3.70;99.90;;;;;;6303551;28;20473;-63
2023/03/28 05:09:01;;;;;;;1.87;1.33;;;3.70;99.90;;;;;;6303096;28;20491;-64
2023/03/28 05:12:04;;;;;;;1.40;1.40;;;3.60;99.90;;;;;;6303066;28;20484;-62
2023/03/28 05:15:10;;;;;;;1.93;1.83;;;3.60;99.90;;;;;;6303399;28;20473;-64
2023/03/28 05:18:24;;;;;;;1.80;1.70;;;3.60;99.90;;;;;;6303110;28;20796;-64
2023/03/28 05:21:28;;;;;;;2.30;1.70;;;3.70;99.90;;;;;;6303055;28;20467;-63
2023/03/28 05:24:31;;;;;;;2.60;1.70;;;3.70;99.90;;;;;;6303596;28;20487;-63
2023/03/28 05:27:38;;;;;;;1.73;1.60;;;3.80;99.90;;;;;;6293594;28;20472;-63
2023/03/28 05:30:43;;;;;;;1.40;1.30;;;3.80;99.90;;;;;;6302823;28;20473;-64
2023/03/28 05:33:46;;;;;;;4.87;3.97;;;3.80;99.90;;;;;;6302518;28;20954;-64
2023/03/28 05:36:49;;;;;;;2.00;1.80;;;3.90;99.90;;;;;;6302526;28;20794;-63
2023/03/28 05:39:53;;;;;;;1.90;1.80;;;3.90;99.90;;;;;;6303020;28;20465;-63
2023/03/28 05:42:56;;;;;;;2.17;1.63;;;4.00;99.90;;;;;;6302804;28;20480;-63
2023/03/28 05:46:00;;;;;;;2.43;2.33;;;4.00;99.90;;;;;;6302393;28;20935;-63
2023/03/28 05:49:04;;;;;;;3.23;2.97;;;4.00;99.90;;;;;;6302322;28;20477;-63
2023/03/28 05:52:07;;;;;;;3.40;3.03;;;3.90;99.90;;;;;;6302383;28;20949;-63
2023/03/28 05:55:10;;;;;;;2.63;2.43;;;3.90;99.90;;;;;;6302077;28;20473;-63
2023/03/28 05:58:13;;;;;;;3.07;2.63;;;4.00;99.90;;;;;;6302379;28;20992;-64
2023/03/28 06:01:22;;;;;;;5.87;4.33;;;4.00;99.90;;;;;;6302353;28;20951;-63
2023/03/28 06:04:26;;;;;;;11.37;10.27;;;4.10;99.90;;;;;;6301863;28;20477;-63
2023/03/28 06:07:30;;;;;;;6.43;5.77;;;4.20;99.90;;;;;;6302567;28;20501;-63
2023/03/28 06:10:45;;;;;;;4.80;3.60;;;4.30;99.90;;;;;;6301592;28;20512;-63
2023/03/28 06:13:48;;;;;;;3.73;3.40;;;4.40;99.90;;;;;;6302264;28;20883;-63
2023/03/28 06:16:53;;;;;;;2.60;2.40;;;4.40;99.90;;;;;;6302551;28;20548;-63
2023/03/28 06:19:56;;;;;;;3.07;2.87;;;4.50;99.90;;;;;;6301944;28;20447;-63
2023/03/28 06:23:02;;;;;;;2.63;2.53;;;4.50;99.90;;;;;;6302380;28;20461;-63
2023/03/28 06:26:06;;;;;;;4.13;3.83;;;4.50;99.90;;;;;;6301813;28;20516;-63
2023/03/28 06:29:10;;;;;;;5.37;4.20;;;4.80;99.90;;;;;;6297291;28;20615;-64
2023/03/28 06:32:16;;;;;;;4.40;4.00;;;4.90;99.90;;;;;;6301604;28;20473;-64
2023/03/28 06:35:20;;;;;;;5.50;5.10;;;5.30;99.90;;;;;;6301807;28;20492;-64
2023/03/28 06:38:23;;;;;;;3.77;3.47;;;6.50;98.00;;;;;;6301771;28;20480;-63
2023/03/28 06:41:26;;;;;;;3.00;2.00;;;8.30;96.30;;;;;;6301798;28;20618;-63
2023/03/28 06:44:30;;;;;;;4.43;2.00;;;10.80;92.60;;;;;;6301272;28;20989;-63
2023/03/28 06:47:34;;;;;;;2.03;1.57;;;11.90;79.50;;;;;;6301199;28;20966;-63
2023/03/28 06:50:38;;;;;;;1.50;1.20;;;13.70;66.50;;;;;;6300752;28;20955;-63
2023/03/28 06:53:41;;;;;;;1.73;1.50;;;14.60;57.60;;;;;;6300965;28;20971;-64
2023/03/28 06:56:44;;;;;;;0.80;0.80;;;15.70;52.40;;;;;;6300794;28;20985;-64
2023/03/28 06:59:47;;;;;;;1.97;1.30;;;16.90;45.60;;;;;;6300747;28;20465;-65
2023/03/28 07:02:52;;;;;;;1.60;1.23;;;17.30;39.50;;;;;;6301176;28;20473;-64
2023/03/28 07:05:56;;;;;;;1.70;1.00;;;17.50;38.10;;;;;;6300466;28;20516;-63
2023/03/28 07:08:59;;;;;;;2.90;1.00;;;18.30;34.60;;;;;;6300382;28;20799;-64
2023/03/28 07:12:04;;;;;;;1.87;0.90;;;18.30;33.90;;;;;;6300465;28;20554;-63
2023/03/28 07:15:09;;;;;;;0.60;0.60;;;18.80;32.40;;;;;;6300544;28;20304;-64
2023/03/28 07:18:13;;;;;;;1.00;0.70;;;18.90;30.00;;;;;;6300759;28;20469;-64
2023/03/28 07:21:18;;;;;;;2.93;1.53;;;19.30;29.80;;;;;;6300542;28;20223;-63
2023/03/28 07:24:21;;;;;;;1.10;0.93;;;19.90;29.90;;;;;;6300323;28;20231;-64
2023/03/28 07:27:25;;;;;;;1.67;1.47;;;20.70;27.40;;;;;;6300520;28;20547;-64
2023/03/28 07:30:28;;;;;;;1.90;1.03;;;20.20;26.90;;;;;;6300495;28;20241;-64
2023/03/28 07:33:33;;;;;;;4.00;1.80;;;20.20;26.30;;;;;;6300669;28;20234;-64
2023/03/28 07:36:42;;;;;;;1.47;0.90;;;20.50;26.30;;;;;;6300245;28;20242;-63
2023/03/28 07:39:45;;;;;;;0.93;0.80;;;21.00;25.10;;;;;;6299849;28;20227;-64
2023/03/28 07:42:49;;;;;;;1.77;0.60;;;21.40;25.50;;;;;;6299937;28;20227;-63
2023/03/28 07:45:53;;;;;;;0.77;0.60;;;21.20;24.20;;;;;;6299848;28;20564;-63
2023/03/28 07:48:59;;;;;;;1.90;0.70;;;22.40;25.40;;;;;;6300330;28;20230;-64
2023/03/28 07:52:02;;;;;;;2.57;0.93;;;23.60;23.90;;;;;;6300103;28;20265;-64
2023/03/28 07:55:06;;;;;;;4.83;0.70;;;24.40;21.80;;;;;;6303169;28;20247;-64
2023/03/28 07:58:10;;;;;;;3.13;0.70;;;23.70;21.00;;;;;;6303941;28;20239;-64
2023/03/28 08:01:13;;;;;;;1.13;0.70;;;23.00;21.50;;;;;;6320699;28;20226;-65
2023/03/28 08:04:18;;;;;;;2.77;0.70;;;23.60;21.90;;;;;;6324780;28;20226;-65
2023/03/28 08:07:21;;;;;;;2.37;0.73;;;24.40;20.50;;;;;;6324693;28;20241;-64
2023/03/28 08:10:24;;;;;;;1.10;0.70;;;25.70;20.40;;;;;;6324008;28;20230;-65
2023/03/28 08:13:28;;;;;;;1.33;0.60;;;26.10;18.80;;;;;;6324396;28;20240;-65
2023/03/28 08:16:32;;;;;;;3.53;1.03;;;26.20;18.50;;;;;;6324592;28;20225;-66
2023/03/28 08:19:37;;;;;;;3.17;0.90;;;27.00;18.50;;;;;;6324330;28;20591;-67
2023/03/28 08:22:41;;;;;;;1.30;0.70;;;28.40;17.70;;;;;;6325172;28;20226;-65
2023/03/28 08:25:46;;;;;;;1.40;0.60;;;28.80;17.00;;;;;;6325465;28;20229;-65
2023/03/28 08:28:50;;;;;;;1.50;0.53;;;28.70;16.80;;;;;;6325054;28;20262;-66
2023/03/28 08:31:53;;;;;;;1.60;0.87;;;28.80;17.00;;;;;;6324144;28;20229;-66
2023/03/28 08:35:01;;;;;;;2.63;0.80;;;29.60;16.00;;;;;;6324484;28;20212;-67
2023/03/28 08:38:05;;;;;;;2.60;0.70;;;30.40;14.40;;;;;;6324231;28;20232;-66
2023/03/28 08:41:28;;;;;;;2.03;0.50;;;29.20;14.20;;;;;;6325152;28;20225;-68
2023/03/28 08:44:47;;;;;;;2.80;1.20;;;28.70;15.10;;;;;;6324698;28;20244;-67
2023/03/28 08:48:02;;;;;;;1.67;0.83;;;29.40;14.80;;;;;;6324538;28;20275;-70
2023/03/28 08:51:18;;;;;;;1.80;0.60;;;30.80;15.70;;;;;;6324114;28;20234;-68
2023/03/28 08:54:24;;;;;;;0.80;0.57;;;31.40;14.50;;;;;;6324140;28;20226;-68
2023/03/28 08:57:29;;;;;;;1.95;0.70;;;32.90;13.80;;;;;;6323894;28;20233;-68
2023/03/28 09:00:35;;;;;;;1.00;0.50;;;33.40;12.80;;;;;;6316778;28;20230;-67
2023/03/28 09:03:39;;;;;;;1.02;0.43;;;34.00;12.40;;;;;;6300602;28;20230;-67
2023/03/28 09:06:46;;;;;;;2.42;0.95;;;33.70;11.90;;;;;;6299627;28;20702;-67
2023/03/28 09:09:54;;;;;;;1.38;0.80;;;33.40;11.50;;;;;;6319562;28;20557;-67
2023/03/28 09:13:09;;;;;;;2.45;0.50;;;34.20;11.60;;;;;;6322641;28;20229;-67
2023/03/28 09:16:27;;;;;;;3.05;0.55;;;33.30;10.70;;;;;;6327164;28;20568;-65
2023/03/28 09:19:54;;;;;;;1.85;0.88;;;32.00;9.70;;;;;;6328177;28;20243;-65
2023/03/28 09:23:16;;;;;;;0.80;0.50;;;31.60;10.30;;;;;;6328490;28;20300;-65
2023/03/28 09:26:24;;;;;;;1.90;0.63;;;31.20;10.20;;;;;;6327677;28;20547;-66
2023/03/28 09:29:27;;;;;;;1.05;0.60;;;31.20;9.80;;;;;;6328398;28;20221;-66
2023/03/28 09:32:35;;;;;;;1.20;0.50;;;30.80;10.40;;;;;;6327838;28;20229;-66
2023/03/28 09:35:41;;;;;;;3.80;0.60;;;29.20;9.80;;;;;;6327266;28;20556;-65
2023/03/28 09:38:48;;;;;;;0.80;0.60;;;29.00;10.80;;;;;;6327605;28;20225;-66
2023/03/28 09:41:57;;;;;;;1.10;0.70;;;29.60;10.60;;;;;;6318234;28;20229;-66
2023/03/28 09:45:05;;;;;;;1.30;0.67;;;29.60;11.00;;;;;;6327418;28;20237;-64
2023/03/28 09:48:15;;;;;;;1.45;0.75;;;29.70;11.00;;;;;;6327931;28;20226;-66
2023/03/28 09:51:22;;;;;;;1.30;0.60;;;31.50;11.20;;;;;;6327575;28;20238;-66
2023/03/28 09:54:29;;;;;;;1.60;0.60;;;30.80;11.00;;;;;;6328185;28;20237;-67
2023/03/28 09:58:04;;;;;;;1.17;0.55;;;29.80;11.80;;;;;;6327189;28;20229;-67
2023/03/28 10:01:25;;;;;;;2.50;0.80;;;31.00;11.00;;;;;;6326465;28;20225;-66
2023/03/28 10:04:35;;;;;;;2.00;1.00;;;31.60;10.30;;;;;;6326542;28;20236;-66
2023/03/28 10:07:43;;;;;;;1.37;0.70;;;29.00;11.00;;;;;;6326083;28;20324;-66
2023/03/28 10:11:06;;;;;;;1.30;0.77;;;26.30;11.40;;;;;;6326150;28;20214;-64
2023/03/28 10:14:29;;;;;;;1.03;0.63;;;22.90;13.10;;;;;;6326444;28;20231;-65
2023/03/28 10:17:34;;;;;;;1.90;0.70;;;22.70;16.00;;;;;;6327107;28;20249;-64
2023/03/28 10:20:40;;;;;;;1.00;0.67;;;24.90;15.70;;;;;;6330377;28;20229;-67
2023/03/28 10:23:49;;;;;;;1.37;0.50;;;25.80;14.40;;;;;;6331195;28;20245;-66
2023/03/28 10:26:58;;;;;;;1.20;0.93;;;26.40;13.70;;;;;;6326600;28;20237;-68
2023/03/28 10:30:14;;;;;;;1.87;0.77;;;25.10;13.00;;;;;;6326284;28;20264;-65
2023/03/28 10:33:26;;;;;;;1.97;0.67;;;23.80;13.50;;;;;;6325599;28;20555;-66
2023/03/28 10:36:32;;;;;;;1.00;0.57;;;23.10;14.80;;;;;;6325867;28;20234;-64
2023/03/28 10:39:35;;;;;;;1.10;0.80;;;21.80;14.30;;;;;;6326185;28;20222;-64
2023/03/28 10:42:45;;;;;;;2.00;0.80;;;20.40;15.30;;;;;;6325811;28;20240;-64
2023/03/28 10:45:49;;;;;;;0.80;0.70;;;18.90;16.10;;;;;;6308125;28;20295;-63
2023/03/28 10:48:58;;;;;;;1.90;0.60;;;18.10;18.50;;;;;;6317763;28;20571;-63
2023/03/28 10:52:08;;;;;;;0.83;0.50;;;17.20;18.50;;;;;;6311043;28;20215;-63
2023/03/28 10:55:16;;;;;;;0.50;0.50;;;16.70;18.40;;;;;;6310311;28;20484;-63
2023/03/28 10:58:30;;;;;;;0.93;0.67;;;16.00;18.30;;;;;;6311309;28;20469;-63
2023/03/28 11:01:43;;;;;;;0.73;0.53;;;15.20;19.70;;;;;;6311834;28;20476;-63
2023/03/28 11:04:55;;;;;;;0.90;0.80;;;14.70;21.20;;;;;;6314301;28;20457;-63
2023/03/28 11:08:07;;;;;;;2.10;0.60;;;14.60;21.60;;;;;;6315607;28;20866;-63
2023/03/28 11:11:40;;;;;;;1.57;1.03;;;14.10;21.00;;;;;;6315307;28;20488;-62
2023/03/28 11:14:54;;;;;;;0.83;0.80;;;14.30;22.20;;;;;;6308402;28;20981;-62
2023/03/28 11:18:14;;;;;;;1.87;0.80;;;14.40;21.60;;;;;;6313168;28;20933;-62
2023/03/28 11:21:28;;;;;;;1.60;0.77;;;13.80;21.50;;;;;;6310224;28;20473;-63
2023/03/28 11:24:42;;;;;;;0.80;0.70;;;13.00;23.30;;;;;;6311485;28;20453;-63
2023/03/28 11:27:50;;;;;;;1.23;1.10;;;12.90;23.60;;;;;;6311286;28;21228;-63
2023/03/28 11:30:58;;;;;;;2.73;1.37;;;13.20;23.90;;;;;;6310994;28;20465;-63
2023/03/28 11:34:07;;;;;;;2.83;2.43;;;13.00;23.20;;;;;;6310810;28;20786;-63
2023/03/28 11:37:18;;;;;;;1.57;0.97;;;12.50;23.90;;;;;;6311084;28;20517;-63
2023/03/28 11:40:26;;;;;;;1.70;0.90;;;12.20;24.80;;;;;;6310441;28;20840;-63
2023/03/28 11:43:34;;;;;;;1.23;0.80;;;12.20;26.10;;;;;;6311288;28;21040;-63
2023/03/28 11:46:44;;;;;;;1.37;1.00;;;12.60;26.30;;;;;;6312748;28;20476;-62
2023/03/28 11:49:53;;;;;;;1.20;0.80;;;12.80;26.20;;;;;;6311329;28;20441;-63
2023/03/28 11:53:02;;;;;;;0.80;0.80;;;13.20;26.20;;;;;;6310411;28;20462;-62
2023/03/28 11:56:12;;;;;;;0.90;0.67;;;13.40;25.30;;;;;;6315306;28;20913;-62
2023/03/28 11:59:21;;;;;;;1.03;0.87;;;13.30;25.50;;;;;;6309780;28;20468;-62
2023/03/28 12:02:50;;;;;;;1.70;0.60;;;13.50;25.30;;;;;;6316318;28;20904;-62
2023/03/28 12:06:00;;;;;;;0.70;0.60;;;13.20;25.20;;;;;;6311580;28;20469;-62
2023/03/28 12:09:15;;;;;;;2.10;0.63;;;12.70;24.80;;;;;;6312003;28;20959;-62
2023/03/28 12:12:23;;;;;;;0.70;0.50;;;12.40;25.90;;;;;;6314957;28;20484;-62
2023/03/28 12:15:37;;;;;;;0.53;0.50;;;12.30;26.60;;;;;;6313487;28;20503;-63
2023/03/28 12:18:46;;;;;;;0.53;0.53;;;12.40;27.10;;;;;;6324137;28;20468;-62
2023/03/28 12:21:54;;;;;;;2.23;0.70;;;12.80;27.30;;;;;;6315374;28;20469;-63
2023/03/28 12:25:07;;;;;;;0.87;0.70;;;13.10;27.10;;;;;;6305725;28;20469;-63
2023/03/28 12:28:19;;;;;;;0.90;0.70;;;13.10;26.60;;;;;;6303928;28;21033;-62
2023/03/28 12:31:28;;;;;;;0.83;0.80;;;13.20;26.00;;;;;;6309643;28;20760;-63
2023/03/28 12:34:38;;;;;;;1.20;0.60;;;13.40;25.30;;;;;;6312498;28;20469;-63
2023/03/28 12:37:53;;;;;;;1.90;0.70;;;13.50;25.40;;;;;;6312467;28;20456;-62
2023/03/28 12:41:01;;;;;;;1.13;0.60;;;13.50;24.80;;;;;;6331797;28;20460;-65
2023/03/28 12:44:08;;;;;;;0.83;0.70;;;13.20;24.10;;;;;;6326677;28;20597;-62
2023/03/28 12:47:15;;;;;;;1.47;1.00;;;13.00;25.50;;;;;;6309555;28;20488;-62
2023/03/28 12:50:28;;;;;;;2.10;1.03;;;13.00;24.70;;;;;;6312996;28;20469;-62
2023/03/28 12:53:32;;;;;;;1.57;0.73;;;12.70;24.50;;;;;;6306362;28;20489;-62
2023/03/28 12:56:35;;;;;;;0.70;0.70;;;12.50;24.40;;;;;;6309180;28;20888;-65
2023/03/28 13:00:15;;;;;;;1.53;1.10;;;12.30;23.90;;;;;;6303317;28;20534;-66
2023/03/28 13:03:31;;;;;;;0.83;0.77;;;11.70;22.70;;;;;;6322993;28;20483;-66
2023/03/28 13:06:46;;;;;;;1.00;0.90;;;11.70;22.00;;;;;;6328108;28;20472;-64
2023/03/28 13:09:59;;;;;;;1.20;0.90;;;12.00;22.50;;;;;;6328127;28;20961;-65
2023/03/28 13:13:16;;;;;;;1.20;1.10;;;12.00;23.60;;;;;;6328085;28;20968;-65
2023/03/28 13:16:24;;;;;;;1.27;1.07;;;12.20;24.10;;;;;;6328176;28;20487;-65
2023/03/28 13:19:47;;;;;;;1.33;0.90;;;12.40;24.50;;;;;;6327608;28;20464;-66
2023/03/28 13:22:53;;;;;;;1.00;0.90;;;12.50;24.30;;;;;;6328286;28;20779;-65
2023/03/28 13:25:57;;;;;;;1.00;0.90;;;12.50;24.20;;;;;;6327925;28;20932;-64
2023/03/28 13:29:01;;;;;;;1.07;0.90;;;12.30;23.70;;;;;;6328233;28;20455;-64
2023/03/28 13:32:05;;;;;;;4.37;0.80;;;12.40;23.50;;;;;;6327613;28;20456;-64
2023/03/28 13:35:43;;;;;;;2.47;0.97;;;12.50;23.80;;;;;;6327604;28;20468;-65
2023/03/28 13:38:49;;;;;;;1.00;0.93;;;12.00;23.80;;;;;;6328058;28;20476;-66
2023/03/28 13:42:00;;;;;;;0.90;0.83;;;11.60;23.80;;;;;;6327629;28;20464;-66
2023/03/28 13:45:14;;;;;;;1.77;1.00;;;11.50;24.50;;;;;;6327132;28;20485;-65
2023/03/28 13:48:17;;;;;;;3.80;1.30;;;11.40;23.50;;;;;;6328040;28;20475;-64
2023/03/28 13:51:25;;;;;;;1.77;0.80;;;11.40;24.50;;;;;;6326821;28;20817;-65
2023/03/28 13:54:29;;;;;;;1.33;0.90;;;11.40;24.10;;;;;;6327137;28;20468;-64
2023/03/28 13:57:32;;;;;;;0.83;0.83;;;11.60;24.10;;;;;;6326956;28;20791;-64
2023/03/28 14:00:35;;;;;;;1.10;1.00;;;11.70;23.90;;;;;;6327113;28;20472;-65
2023/03/28 14:03:41;;;;;;;0.80;0.80;;;11.70;24.10;;;;;;6327307;28;20479;-65
2023/03/28 14:06:49;;;;;;;1.23;1.13;;;11.50;24.30;;;;;;6327454;28;20941;-64
2023/03/28 14:09:54;;;;;;;2.47;1.03;;;11.30;23.30;;;;;;6326052;28;20484;-64
2023/03/28 14:13:01;;;;;;;2.03;1.00;;;11.00;23.00;;;;;;6322271;28;20472;-64
2023/03/28 14:16:08;;;;;;;2.60;1.10;;;10.80;23.20;;;;;;6327794;28;20949;-63
2023/03/28 14:19:16;;;;;;;0.80;0.80;;;10.70;24.30;;;;;;6330177;28;20468;-65
2023/03/28 14:22:28;;;;;;;2.97;0.90;;;10.80;24.50;;;;;;6330345;28;20862;-65
2023/03/28 14:25:32;;;;;;;1.17;0.70;;;10.80;23.70;;;;;;6328770;28;20495;-65
2023/03/28 14:28:40;;;;;;;2.03;0.90;;;10.70;24.20;;;;;;6327235;28;20468;-64
2023/03/28 14:31:46;;;;;;;1.00;0.97;;;10.60;24.40;;;;;;6327494;28;20441;-65
2023/03/28 14:34:49;;;;;;;0.93;0.93;;;10.60;23.80;;;;;;6325995;28;20495;-63
2023/03/28 14:37:55;;;;;;;1.37;1.27;;;10.70;24.40;;;;;;6326520;28;20765;-65
2023/03/28 14:41:17;;;;;;;1.23;0.90;;;10.70;24.10;;;;;;6326475;28;20460;-65
2023/03/28 14:44:21;;;;;;;1.60;1.50;;;10.60;24.10;;;;;;6326115;28;20487;-64
2023/03/28 14:47:27;;;;;;;1.70;1.23;;;10.40;24.20;;;;;;6326393;28;20494;-64
2023/03/28 14:50:34;;;;;;;1.97;0.97;;;10.20;24.70;;;;;;6325865;28;20473;-64
2023/03/28 14:53:42;;;;;;;1.30;1.20;;;10.20;24.80;;;;;;6325952;28;20472;-63
2023/03/28 14:56:46;;;;;;;1.03;1.00;;;10.20;25.00;;;;;;6325845;28;20473;-63
2023/03/28 14:59:51;;;;;;;2.10;1.10;;;10.20;25.00;;;;;;6325755;28;20464;-64
2023/03/28 15:02:55;;;;;;;2.27;2.17;;;10.10;24.80;;;;;;6316333;28;20461;-63
2023/03/28 15:06:00;;;;;;;1.50;0.90;;;10.10;25.20;;;;;;6325279;28;20476;-63
2023/03/28 15:09:11;;;;;;;2.10;1.23;;;10.10;26.10;;;;;;6325170;28;20514;-63
2023/03/28 15:12:16;;;;;;;2.63;1.43;;;10.10;26.30;;;;;;6326352;28;20468;-63
2023/03/28 15:15:22;;;;;;;1.17;1.07;;;10.10;25.80;;;;;;6331104;28;20472;-63
2023/03/28 15:18:32;;;;;;;1.90;1.50;;;10.00;25.00;;;;;;6331206;28;20475;-63
2023/03/28 15:21:36;;;;;;;1.67;1.00;;;9.90;26.00;;;;;;6324969;28;20472;-64
2023/03/28 15:24:41;;;;;;;2.30;1.63;;;9.80;26.40;;;;;;6324828;28;20461;-63
2023/03/28 15:27:50;;;;;;;2.17;1.03;;;9.90;27.10;;;;;;6324617;28;20491;-63
2023/03/28 15:30:55;;;;;;;1.63;0.90;;;10.10;28.00;;;;;;6325030;28;20479;-65
2023/03/28 15:33:59;;;;;;;1.37;1.27;;;10.20;26.70;;;;;;6325062;28;20495;-64
2023/03/28 15:37:05;;;;;;;0.80;0.80;;;10.30;26.50;;;;;;6325479;28;20480;-63
2023/03/28 15:40:31;;;;;;;1.90;1.27;;;10.40;28.00;;;;;;6325739;28;20472;-61
2023/03/28 15:43:40;;;;;;;1.63;1.20;;;10.50;26.80;;;;;;6312533;28;20465;-63
2023/03/28 15:46:45;;;;;;;3.03;1.10;;;10.40;24.90;;;;;;6310239;28;20895;-63
2023/03/28 15:49:49;;;;;;;2.00;1.37;;;10.10;24.70;;;;;;6311395;28;20433;-63
2023/03/28 15:52:56;;;;;;;1.97;0.97;;;10.00;24.80;;;;;;6312809;28;20478;-64
2023/03/28 15:56:07;;;;;;;1.50;1.33;;;10.00;25.20;;;;;;6309574;28;20477;-64
2023/03/28 15:59:13;;;;;;;1.20;1.10;;;9.90;26.00;;;;;;6309572;28;20544;-64
2023/03/28 16:02:29;;;;;;;1.57;1.03;;;9.90;26.40;;;;;;6314024;28;20975;-64
2023/03/28 16:05:34;;;;;;;2.07;1.80;;;9.90;27.10;;;;;;6306062;28;20627;-64
2023/03/28 16:08:41;;;;;;;1.20;1.10;;;9.80;26.80;;;;;;6314274;28;20469;-63
2023/03/28 16:11:47;;;;;;;3.40;1.60;;;9.80;27.00;;;;;;6310532;28;20472;-63
2023/03/28 16:14:52;;;;;;;1.93;1.33;;;9.70;26.90;;;;;;6312301;28;20951;-62
2023/03/28 16:17:57;;;;;;;2.40;1.50;;;9.70;27.20;;;;;;6314715;28;20468;-62
2023/03/28 16:21:01;;;;;;;4.07;1.30;;;9.60;27.50;;;;;;6313830;28;20786;-62
2023/03/28 16:24:05;;;;;;;2.00;1.60;;;9.50;27.60;;;;;;6309612;28;20460;-63